createdAt,value
2023-02-22T00:00:50.751Z,1669.00
2023-02-22T00:01:51.056Z,1669.00
2023-02-22T00:02:50.840Z,1671.00
2023-02-22T00:03:50.764Z,1662.00
2023-02-22T00:04:50.755Z,1660.00
2023-02-22T00:05:50.747Z,1667.00
2023-02-22T00:06:50.796Z,1650.00
2023-02-22T00:07:50.762Z,1663.00
2023-02-22T00:08:50.761Z,1661.00
2023-02-22T00:09:50.777Z,1652.00
2023-02-22T00:10:50.781Z,1646.00
2023-02-22T00:11:50.820Z,1656.00
2023-02-22T00:12:50.762Z,1665.00
2023-02-22T00:13:50.785Z,1653.00
2023-02-22T00:14:50.794Z,1650.00
2023-02-22T00:15:50.790Z,1652.00
2023-02-22T00:16:50.839Z,1653.00
2023-02-22T00:17:50.812Z,1647.00
2023-02-22T00:18:50.820Z,1640.00
2023-02-22T00:19:50.816Z,1657.00
2023-02-22T00:20:50.796Z,1648.00
2023-02-22T00:21:50.805Z,1631.00
2023-02-22T00:22:50.824Z,1636.00
2023-02-22T00:23:50.813Z,1644.00
2023-02-22T00:24:50.861Z,1627.00
2023-02-22T00:25:50.845Z,1632.00
2023-02-22T00:26:50.849Z,1647.00
2023-02-22T00:27:50.849Z,1629.00
2023-02-22T00:28:50.888Z,1632.00
2023-02-22T00:29:50.858Z,1637.00
2023-02-22T00:30:50.891Z,1621.00
2023-02-22T00:31:51.013Z,1628.00
2023-02-22T00:32:50.859Z,1620.00
2023-02-22T00:33:50.878Z,1621.00
2023-02-22T00:34:50.890Z,1617.00
2023-02-22T00:35:50.886Z,1630.00
2023-02-22T00:36:50.897Z,1623.00
2023-02-22T00:37:50.916Z,1620.00
2023-02-22T00:38:50.918Z,1606.00
2023-02-22T00:39:50.931Z,1610.00
2023-02-22T00:40:50.901Z,1600.00
2023-02-22T00:41:50.947Z,1615.00
2023-02-22T00:42:50.897Z,1617.00
2023-02-22T00:43:50.910Z,1615.00
2023-02-22T00:44:50.924Z,1612.00
2023-02-22T00:45:50.996Z,1597.00
2023-02-22T00:46:50.940Z,1596.00
2023-02-22T00:47:50.924Z,1602.00
2023-02-22T00:48:50.931Z,1609.00
2023-02-22T00:49:50.942Z,1584.00
2023-02-22T00:50:50.972Z,1598.00
2023-02-22T00:51:50.973Z,1610.00
2023-02-22T00:52:50.982Z,1588.00
2023-02-22T00:53:50.994Z,1591.00
2023-02-22T00:54:50.974Z,1589.00
2023-02-22T00:55:51.037Z,1586.00
2023-02-22T00:56:51.028Z,1590.00
2023-02-22T00:57:51.017Z,1580.00
2023-02-22T00:58:51.035Z,1584.00
2023-02-22T00:59:51.052Z,1582.00
2023-02-22T01:00:51.138Z,1571.00
2023-02-22T01:01:51.054Z,1573.00
2023-02-22T01:02:51.093Z,1570.00
2023-02-22T01:03:51.045Z,1569.00
2023-02-22T01:04:51.092Z,1585.00
2023-02-22T01:05:51.047Z,1584.00
2023-02-22T01:06:51.078Z,1580.00
2023-02-22T01:07:51.097Z,1573.00
2023-02-22T01:08:51.064Z,1563.00
2023-02-22T01:09:51.082Z,1572.00
2023-02-22T01:10:51.106Z,1573.00
2023-02-22T01:11:51.128Z,1566.00
2023-02-22T01:12:51.142Z,1570.00
2023-02-22T01:13:51.154Z,1560.00
2023-02-22T01:14:51.151Z,1562.00
2023-02-22T01:15:51.180Z,1559.00
2023-02-22T01:16:51.277Z,1545.00
2023-02-22T01:17:51.170Z,1554.00
2023-02-22T01:18:51.135Z,1549.00
2023-02-22T01:19:53.685Z,1570.00
2023-02-22T01:20:51.151Z,1568.00
2023-02-22T01:21:51.153Z,1559.00
2023-02-22T01:22:51.166Z,1552.00
2023-02-22T01:23:51.147Z,1560.00
2023-02-22T01:24:51.106Z,1566.00
2023-02-22T01:25:51.112Z,1551.00
2023-02-22T01:26:51.084Z,1553.00
2023-02-22T01:27:51.128Z,1548.00
2023-02-22T01:28:51.111Z,1551.00
2023-02-22T01:29:51.114Z,1540.00
2023-02-22T01:30:51.142Z,1562.00
2023-02-22T01:31:51.105Z,1546.00
2023-02-22T01:32:51.114Z,1548.00
2023-02-22T01:33:51.069Z,1540.00
2023-02-22T01:34:51.042Z,1548.00
2023-02-22T01:35:51.073Z,1542.00
2023-02-22T01:36:51.028Z,1545.00
2023-02-22T01:37:51.070Z,1546.00
2023-02-22T01:38:51.028Z,1549.00
2023-02-22T01:39:51.036Z,1540.00
2023-02-22T01:40:51.025Z,1539.00
2023-02-22T01:41:50.985Z,1545.00
2023-02-22T01:42:51.009Z,1540.00
2023-02-22T01:43:51.000Z,1539.00
2023-02-22T01:44:51.012Z,1542.00
2023-02-22T01:45:50.996Z,1532.00
2023-02-22T01:46:50.972Z,1559.00
2023-02-22T01:47:50.977Z,1535.00
2023-02-22T01:48:50.975Z,1541.00
2023-02-22T01:49:50.995Z,1539.00
2023-02-22T01:50:50.949Z,1532.00
2023-02-22T01:51:50.928Z,1529.00
2023-02-22T01:52:50.928Z,1526.00
2023-02-22T01:53:50.935Z,1530.00
2023-02-22T01:54:50.913Z,1523.00
2023-02-22T01:55:50.889Z,1531.00
2023-02-22T01:56:50.884Z,1533.00
2023-02-22T01:57:50.879Z,1521.00
2023-02-22T01:58:50.892Z,1521.00
2023-02-22T01:59:50.898Z,1509.00
2023-02-22T02:00:50.919Z,1510.00
2023-02-22T02:01:50.864Z,1516.00
2023-02-22T02:02:50.865Z,1520.00
2023-02-22T02:03:50.912Z,1515.00
2023-02-22T02:04:50.863Z,1513.00
2023-02-22T02:05:50.844Z,1508.00
2023-02-22T02:06:50.837Z,1507.00
2023-02-22T02:07:50.813Z,1508.00
2023-02-22T02:08:50.853Z,1514.00
2023-02-22T02:09:50.818Z,1498.00
2023-02-22T02:10:50.831Z,1494.00
2023-02-22T02:11:50.808Z,1506.00
2023-02-22T02:12:50.836Z,1508.00
2023-02-22T02:13:50.836Z,1504.00
2023-02-22T02:14:50.831Z,1500.00
2023-02-22T02:15:50.791Z,1498.00
2023-02-22T02:16:50.810Z,1492.00
2023-02-22T02:17:50.754Z,1495.00
2023-02-22T02:18:50.763Z,1500.00
2023-02-22T02:19:50.736Z,1494.00
2023-02-22T02:20:50.734Z,1485.00
2023-02-22T02:21:50.735Z,1489.00
2023-02-22T02:22:50.758Z,1482.00
2023-02-22T02:23:50.706Z,1483.00
2023-02-22T02:24:50.720Z,1487.00
2023-02-22T02:25:50.687Z,1482.00
2023-02-22T02:26:50.692Z,1482.00
2023-02-22T02:27:50.689Z,1487.00
2023-02-22T02:28:50.677Z,1484.00
2023-02-22T02:29:50.702Z,1484.00
2023-02-22T02:30:50.673Z,1483.00
2023-02-22T02:31:50.782Z,1484.00
2023-02-22T02:32:50.654Z,1476.00
2023-02-22T02:33:50.666Z,1482.00
2023-02-22T02:34:50.660Z,1481.00
2023-02-22T02:35:50.641Z,1471.00
2023-02-22T02:36:50.639Z,1480.00
2023-02-22T02:37:50.606Z,1481.00
2023-02-22T02:38:50.636Z,1466.00
2023-02-22T02:39:50.620Z,1482.00
2023-02-22T02:40:50.627Z,1475.00
2023-02-22T02:41:50.623Z,1474.00
2023-02-22T02:42:50.574Z,1483.00
2023-02-22T02:43:50.653Z,1478.00
2023-02-22T02:44:50.601Z,1468.00
2023-02-22T02:45:50.616Z,1470.00
2023-02-22T02:46:50.603Z,1472.00
2023-02-22T02:47:50.570Z,1459.00
2023-02-22T02:48:50.555Z,1474.00
2023-02-22T02:49:50.565Z,1475.00
2023-02-22T02:50:50.541Z,1462.00
2023-02-22T02:51:50.557Z,1477.00
2023-02-22T02:52:50.535Z,1455.00
2023-02-22T02:53:50.556Z,1470.00
2023-02-22T02:54:50.512Z,1452.00
2023-02-22T02:55:50.507Z,1457.00
2023-02-22T02:56:50.495Z,1451.00
2023-02-22T02:57:50.526Z,1460.00
2023-02-22T02:58:50.486Z,1455.00
2023-02-22T02:59:50.496Z,1442.00
2023-02-22T03:00:50.514Z,1444.00
2023-02-22T03:01:50.517Z,1457.00
2023-02-22T03:02:50.451Z,1433.00
2023-02-22T03:03:50.463Z,1442.00
2023-02-22T03:04:50.479Z,1431.00
2023-02-22T03:05:50.440Z,1437.00
2023-02-22T03:06:50.462Z,1436.00
2023-02-22T03:07:50.453Z,1415.00
2023-02-22T03:08:50.441Z,1429.00
2023-02-22T03:09:50.466Z,1440.00
2023-02-22T03:10:50.415Z,1430.00
2023-02-22T03:11:50.415Z,1447.00
2023-02-22T03:12:50.371Z,1448.00
2023-02-22T03:13:50.394Z,1436.00
2023-02-22T03:14:50.391Z,1430.00
2023-02-22T03:15:50.369Z,1425.00
2023-02-22T03:16:50.382Z,1426.00
2023-02-22T03:17:50.385Z,1436.00
2023-02-22T03:18:50.353Z,1436.00
2023-02-22T03:19:50.372Z,1431.00
2023-02-22T03:20:50.366Z,1416.00
2023-02-22T03:21:50.402Z,1416.00
2023-02-22T03:22:50.441Z,1418.00
2023-02-22T03:23:50.534Z,1425.00
2023-02-22T03:24:50.567Z,1408.00
2023-02-22T03:25:50.618Z,1429.00
2023-02-22T03:26:50.627Z,1405.00
2023-02-22T03:27:50.693Z,1420.00
2023-02-22T03:28:50.697Z,1431.00
2023-02-22T03:29:50.752Z,1417.00
2023-02-22T03:30:50.769Z,1428.00
2023-02-22T03:31:50.807Z,1424.00
2023-02-22T03:32:50.846Z,1433.00
2023-02-22T03:33:50.859Z,1430.00
2023-02-22T03:34:50.926Z,1423.00
2023-02-22T03:35:50.884Z,1417.00
2023-02-22T03:36:50.964Z,1411.00
2023-02-22T03:37:50.992Z,1434.00
2023-02-22T03:38:51.035Z,1427.00
2023-02-22T03:39:51.033Z,1439.00
2023-02-22T03:40:51.047Z,1425.00
2023-02-22T03:41:51.055Z,1444.00
2023-02-22T03:42:51.079Z,1420.00
2023-02-22T03:43:51.112Z,1436.00
2023-02-22T03:44:51.096Z,1432.00
2023-02-22T03:45:51.111Z,1440.00
2023-02-22T03:46:51.128Z,1428.00
2023-02-22T03:47:51.124Z,1426.00
2023-02-22T03:48:51.141Z,1425.00
2023-02-22T03:49:51.178Z,1426.00
2023-02-22T03:50:51.213Z,1435.00
2023-02-22T03:51:51.196Z,1429.00
2023-02-22T03:52:51.224Z,1434.00
2023-02-22T03:53:51.226Z,1420.00
2023-02-22T03:54:51.248Z,1418.00
2023-02-22T03:55:51.289Z,1424.00
2023-02-22T03:56:51.293Z,1413.00
2023-02-22T03:57:51.296Z,1413.00
2023-02-22T03:58:51.310Z,1425.00
2023-02-22T03:59:51.313Z,1411.00
2023-02-22T04:00:51.337Z,1416.00
2023-02-22T04:01:51.373Z,1410.00
2023-02-22T04:02:51.414Z,1421.00
2023-02-22T04:03:51.397Z,1419.00
2023-02-22T04:04:51.420Z,1404.00
2023-02-22T04:05:51.420Z,1405.00
2023-02-22T04:06:51.424Z,1407.00
2023-02-22T04:07:51.428Z,1403.00
2023-02-22T04:08:51.475Z,1398.00
2023-02-22T04:09:51.493Z,1390.00
2023-02-22T04:10:51.539Z,1394.00
2023-02-22T04:11:51.548Z,1394.00
2023-02-22T04:12:51.589Z,1386.00
2023-02-22T04:13:51.583Z,1394.00
2023-02-22T04:14:51.635Z,1395.00
2023-02-22T04:15:51.660Z,1386.00
2023-02-22T04:16:51.681Z,1390.00
2023-02-22T04:17:51.669Z,1385.00
2023-02-22T04:18:51.684Z,1397.00
2023-02-22T04:19:51.761Z,1397.00
2023-02-22T04:20:51.756Z,1386.00
2023-02-22T04:21:51.784Z,1386.00
2023-02-22T04:22:51.811Z,1379.00
2023-02-22T04:23:51.837Z,1375.00
2023-02-22T04:24:51.842Z,1385.00
2023-02-22T04:25:51.891Z,1373.00
2023-02-22T04:26:51.929Z,1372.00
2023-02-22T04:27:51.987Z,1377.00
2023-02-22T04:28:52.515Z,1375.00
2023-02-22T04:29:52.040Z,1374.00
2023-02-22T04:30:52.087Z,1380.00
2023-02-22T04:31:52.147Z,1376.00
2023-02-22T04:32:52.141Z,1367.00
2023-02-22T04:33:52.183Z,1371.00
2023-02-22T04:34:52.215Z,1371.00
2023-02-22T04:35:52.254Z,1373.00
2023-02-22T04:36:52.274Z,1354.00
2023-02-22T04:37:52.292Z,1355.00
2023-02-22T04:38:52.353Z,1357.00
2023-02-22T04:39:52.450Z,1361.00
2023-02-22T04:40:52.428Z,1369.00
2023-02-22T04:41:52.452Z,1360.00
2023-02-22T04:42:52.493Z,1352.00
2023-02-22T04:43:52.562Z,1345.00
2023-02-22T04:44:52.613Z,1358.00
2023-02-22T04:45:52.651Z,1355.00
2023-02-22T04:46:52.690Z,1366.00
2023-02-22T04:47:52.691Z,1345.00
2023-02-22T04:48:52.731Z,1364.00
2023-02-22T04:49:52.779Z,1358.00
2023-02-22T04:50:52.824Z,1348.00
2023-02-22T04:51:52.870Z,1341.00
2023-02-22T04:52:52.898Z,1339.00
2023-02-22T04:53:52.949Z,1353.00
2023-02-22T04:54:53.002Z,1344.00
2023-02-22T04:55:53.015Z,1352.00
2023-02-22T04:56:53.042Z,1331.00
2023-02-22T04:57:53.096Z,1337.00
2023-02-22T04:58:53.120Z,1338.00
2023-02-22T04:59:53.190Z,1337.00
2023-02-22T05:00:53.220Z,1337.00
2023-02-22T05:01:53.231Z,1337.00
2023-02-22T05:02:53.377Z,1339.00
2023-02-22T05:03:53.316Z,1327.00
2023-02-22T05:04:53.434Z,1329.00
2023-02-22T05:05:53.384Z,1343.00
2023-02-22T05:06:54.981Z,1335.00
2023-02-22T05:07:53.465Z,1343.00
2023-02-22T05:08:53.505Z,1328.00
2023-02-22T05:09:53.584Z,1338.00
2023-02-22T05:10:53.568Z,1340.00
2023-02-22T05:11:53.626Z,1328.00
2023-02-22T05:12:53.646Z,1338.00
2023-02-22T05:13:53.697Z,1322.00
2023-02-22T05:14:53.763Z,1322.00
2023-02-22T05:15:53.793Z,1331.00
2023-02-22T05:16:53.811Z,1321.00
2023-02-22T05:17:53.849Z,1331.00
2023-02-22T05:18:53.864Z,1324.00
2023-02-22T05:19:53.918Z,1322.00
2023-02-22T05:20:53.939Z,1322.00
2023-02-22T05:21:54.014Z,1327.00
2023-02-22T05:22:55.048Z,1337.00
2023-02-22T05:23:54.053Z,1323.00
2023-02-22T05:24:54.131Z,1331.00
2023-02-22T05:25:54.159Z,1321.00
2023-02-22T05:26:54.195Z,1321.00
2023-02-22T05:27:54.225Z,1307.00
2023-02-22T05:28:54.265Z,1311.00
2023-02-22T05:29:54.297Z,1318.00
2023-02-22T05:30:54.355Z,1302.00
2023-02-22T05:31:54.470Z,1322.00
2023-02-22T05:32:54.431Z,1316.00
2023-02-22T05:33:54.478Z,1300.00
2023-02-22T05:34:54.509Z,1301.00
2023-02-22T05:35:54.549Z,1297.00
2023-02-22T05:36:54.581Z,1305.00
2023-02-22T05:37:54.613Z,1312.00
2023-02-22T05:38:54.662Z,1302.00
2023-02-22T05:39:54.706Z,1284.00
2023-02-22T05:40:54.725Z,1303.00
2023-02-22T05:41:54.781Z,1279.00
2023-02-22T05:42:54.792Z,1294.00
2023-02-22T05:43:54.874Z,1302.00
2023-02-22T05:44:54.891Z,1286.00
2023-02-22T05:45:54.917Z,1285.00
2023-02-22T05:46:54.970Z,1288.00
2023-02-22T05:47:54.980Z,1292.00
2023-02-22T05:48:55.013Z,1293.00
2023-02-22T05:49:55.069Z,1280.00
2023-02-22T05:50:55.211Z,1283.00
2023-02-22T05:51:55.154Z,1286.00
2023-02-22T05:52:55.156Z,1280.00
2023-02-22T05:53:55.201Z,1281.00
2023-02-22T05:54:55.261Z,1283.00
2023-02-22T05:55:55.264Z,1286.00
2023-02-22T05:56:55.302Z,1294.00
2023-02-22T05:57:55.330Z,1287.00
2023-02-22T05:58:55.390Z,1287.00
2023-02-22T05:59:55.408Z,1283.00
2023-02-22T06:01:03.415Z,1294.00
2023-02-22T06:01:55.495Z,1296.00
2023-02-22T06:02:55.449Z,1295.00
2023-02-22T06:03:55.411Z,1301.00
2023-02-22T06:04:55.418Z,1286.00
2023-02-22T06:05:55.514Z,1284.00
2023-02-22T06:06:55.406Z,1292.00
2023-02-22T06:07:55.420Z,1280.00
2023-02-22T06:08:55.415Z,1282.00
2023-02-22T06:09:55.458Z,1282.00
2023-02-22T06:10:55.497Z,1283.00
2023-02-22T06:11:55.512Z,1283.00
2023-02-22T06:12:55.586Z,1282.00
2023-02-22T06:13:55.600Z,1276.00
2023-02-22T06:14:55.667Z,1284.00
2023-02-22T06:15:55.693Z,1292.00
2023-02-22T06:16:55.710Z,1282.00
2023-02-22T06:17:55.741Z,1294.00
2023-02-22T06:18:55.785Z,1289.00
2023-02-22T06:19:55.814Z,1287.00
2023-02-22T06:26:55.990Z,1300.00
2023-02-22T06:27:55.947Z,1290.00
2023-02-22T06:28:56.040Z,1304.00
2023-02-22T06:29:56.012Z,1359.00
2023-02-22T06:30:56.049Z,1382.00
2023-02-22T06:31:56.150Z,1344.00
2023-02-22T06:32:56.093Z,1290.00
2023-02-22T06:33:56.185Z,1244.00
2023-02-22T06:34:56.585Z,1163.00
2023-02-22T06:35:56.217Z,1147.00
2023-02-22T06:36:56.714Z,1205.00
2023-02-22T06:37:56.231Z,1479.00
2023-02-22T06:38:56.275Z,1459.00
2023-02-22T06:39:57.986Z,1490.00
2023-02-22T06:40:56.354Z,1591.00
2023-02-22T06:41:56.421Z,1580.00
2023-02-22T06:42:56.367Z,1613.00
2023-02-22T06:43:56.387Z,1634.00
2023-02-22T06:44:56.577Z,1611.00
2023-02-22T06:46:03.492Z,1618.00
2023-02-22T06:46:56.463Z,1624.00
2023-02-22T06:47:56.440Z,1648.00
2023-02-22T06:48:57.554Z,1695.00
2023-02-22T07:22:56.173Z,2446.00
2023-02-22T07:23:56.202Z,2448.00
2023-02-22T07:24:56.192Z,2503.00
2023-02-22T07:26:56.270Z,2482.00
2023-02-22T07:27:56.336Z,2460.00
2023-02-22T07:28:56.371Z,2521.00
2023-02-22T07:29:56.420Z,2509.00
2023-02-22T07:30:56.621Z,2536.00
2023-02-22T07:31:56.365Z,2516.00
2023-02-22T07:37:56.698Z,2594.00
2023-02-22T07:46:56.888Z,2059.00
2023-02-22T07:47:56.897Z,2114.00
2023-02-22T07:48:56.936Z,2066.00
2023-02-22T07:49:56.912Z,2022.00
2023-02-22T07:50:56.943Z,2028.00
2023-02-22T07:51:56.958Z,2017.00
2023-02-22T07:52:56.970Z,2036.00
2023-02-22T07:53:57.068Z,2094.00
2023-02-22T07:54:57.085Z,2108.00
2023-02-22T07:55:57.095Z,2208.00
2023-02-22T07:56:57.099Z,2129.00
2023-02-22T07:57:57.115Z,2129.00
2023-02-22T07:58:57.133Z,2100.00
2023-02-22T07:59:57.163Z,2120.00
2023-02-22T08:00:57.224Z,2122.00
2023-02-22T08:01:57.279Z,2119.00
2023-02-22T08:02:57.349Z,2126.00
2023-02-22T08:04:57.451Z,2134.00
2023-02-22T08:05:57.537Z,2142.00
2023-02-22T08:06:57.604Z,2170.00
2023-02-22T08:07:57.693Z,2161.00
2023-02-22T08:08:57.708Z,2165.00
2023-02-22T08:09:57.748Z,2156.00
2023-02-22T08:10:57.818Z,2170.00
2023-02-22T08:11:57.869Z,2194.00
2023-02-22T08:12:57.935Z,2173.00
2023-02-22T08:13:57.932Z,2201.00
2023-02-22T08:14:57.984Z,2204.00
2023-02-22T08:15:58.035Z,2209.00
2023-02-22T08:16:58.112Z,2196.00
2023-02-22T08:17:58.150Z,2181.00
2023-02-22T08:18:58.172Z,2195.00
2023-02-22T08:19:58.182Z,2210.00
2023-02-22T08:20:58.290Z,2206.00
2023-02-22T08:21:58.309Z,2218.00
2023-02-22T08:22:58.344Z,2240.00
2023-02-22T08:23:58.340Z,2210.00
2023-02-22T08:24:58.399Z,2220.00
2023-02-22T08:25:58.470Z,2246.00
2023-02-22T08:26:58.492Z,2231.00
2023-02-22T08:27:58.532Z,2234.00
2023-02-22T08:28:58.541Z,2223.00
2023-02-22T08:29:58.556Z,2212.00
2023-02-22T08:30:58.585Z,2208.00
2023-02-22T08:31:58.822Z,2142.00
2023-02-22T08:33:58.702Z,1453.00
2023-02-22T08:34:58.749Z,1109.00
2023-02-22T08:35:58.762Z,930.00
2023-02-22T08:36:58.806Z,903.00
2023-02-22T08:37:58.845Z,966.00
2023-02-22T08:38:58.801Z,812.00
2023-02-22T08:39:58.822Z,693.00
2023-02-22T08:40:59.170Z,773.00
2023-02-22T08:41:58.869Z,866.00
2023-02-22T08:42:58.892Z,862.00
2023-02-22T08:46:59.118Z,875.00
2023-02-22T09:24:00.032Z,1236.00
2023-02-22T09:26:02.489Z,1226.00
2023-02-22T09:36:00.401Z,1218.00
2023-02-22T09:37:00.676Z,1209.00
2023-02-22T09:38:00.403Z,1229.00
2023-02-22T09:39:00.454Z,1213.00
2023-02-22T09:40:00.483Z,1226.00
2023-02-22T09:41:00.470Z,1245.00
2023-02-22T09:42:00.467Z,1264.00
2023-02-22T09:43:00.492Z,1273.00
2023-02-22T09:44:00.581Z,1260.00
2023-02-22T09:48:08.182Z,1024.00
2023-02-22T09:49:01.584Z,643.00
2023-02-22T09:50:00.562Z,643.00
2023-02-22T09:51:00.573Z,480.00
2023-02-22T09:52:00.700Z,400.00
2023-02-22T09:53:00.641Z,400.00
2023-02-22T09:54:00.548Z,417.00
2023-02-22T09:55:00.543Z,491.00
2023-02-22T09:56:00.516Z,400.00
2023-02-22T09:57:00.514Z,400.00
2023-02-22T09:58:00.498Z,400.00
2023-02-22T09:59:00.507Z,445.00
2023-02-22T10:00:00.497Z,533.00
2023-02-22T10:01:00.490Z,553.00
2023-02-22T10:03:00.578Z,461.00
2023-02-22T10:04:00.509Z,467.00
2023-02-22T10:05:00.516Z,582.00
2023-02-22T10:06:00.491Z,614.00
2023-02-22T10:07:00.872Z,658.00
2023-02-22T10:08:00.579Z,635.00
2023-02-22T10:09:00.624Z,557.00
2023-02-22T10:10:00.701Z,511.00
2023-02-22T10:11:00.724Z,531.00
2023-02-22T10:12:01.183Z,568.00
2023-02-22T10:13:00.834Z,454.00
2023-02-22T10:22:01.250Z,523.00
2023-02-22T10:25:01.135Z,499.00
2023-02-22T10:26:01.108Z,512.00
2023-02-22T10:28:01.138Z,553.00
2023-02-22T10:29:01.172Z,632.00
2023-02-22T10:30:02.700Z,752.00
2023-02-22T10:32:01.298Z,418.00
2023-02-22T10:33:01.180Z,491.00
2023-02-22T10:34:01.174Z,445.00
2023-02-22T10:35:01.140Z,585.00
2023-02-22T10:36:01.146Z,681.00
2023-02-22T10:37:01.150Z,673.00
2023-02-22T10:38:01.173Z,601.00
2023-02-22T10:39:01.098Z,459.00
2023-02-22T10:40:01.106Z,517.00
2023-02-22T10:41:01.124Z,576.00
2023-02-22T10:42:01.218Z,506.00
2023-02-22T10:43:01.092Z,619.00
2023-02-22T10:44:01.090Z,1004.00
2023-02-22T10:45:01.100Z,1375.00
2023-02-22T10:46:01.208Z,1705.00
2023-02-22T10:47:01.042Z,1963.00
2023-02-22T10:48:01.245Z,2348.00
2023-02-22T10:49:01.073Z,2438.00
2023-02-22T10:50:01.032Z,2611.00
2023-02-22T10:51:01.048Z,2791.00
2023-02-22T10:53:01.035Z,3041.00
2023-02-22T10:54:01.058Z,3158.00
2023-02-22T10:55:14.323Z,3213.00
2023-02-22T10:56:02.003Z,3220.00
2023-02-22T10:57:00.987Z,3243.00
2023-02-22T10:58:01.000Z,3279.00
2023-02-22T11:00:01.005Z,3363.00
2023-02-22T11:01:00.960Z,3415.00
2023-02-22T11:03:01.006Z,3515.00
2023-02-22T11:04:01.014Z,3589.00
2023-02-22T11:05:00.996Z,3677.00
2023-02-22T11:06:00.955Z,3690.00
2023-02-22T11:08:00.921Z,3755.00
2023-02-22T11:09:00.888Z,3781.00
2023-02-22T11:10:00.906Z,3836.00
2023-02-22T11:11:00.914Z,3865.00
2023-02-22T11:12:01.219Z,3862.00
2023-02-22T11:13:01.042Z,3889.00
2023-02-22T11:14:00.993Z,3884.00
2023-02-22T11:15:01.081Z,3914.00
2023-02-22T11:16:01.114Z,3870.00
2023-02-22T11:17:01.236Z,3892.00
2023-02-22T11:18:01.222Z,3923.00
2023-02-22T11:19:01.275Z,3978.00
2023-02-22T11:21:02.422Z,3877.00
2023-02-22T11:22:01.457Z,3890.00
2023-02-22T11:23:01.468Z,3946.00
2023-02-22T11:24:01.494Z,3939.00
2023-02-22T11:25:01.624Z,3938.00
2023-02-22T11:26:01.558Z,4013.00
2023-02-22T11:27:01.946Z,4042.00
2023-02-22T11:28:01.636Z,3984.00
2023-02-22T11:29:01.790Z,3989.00
2023-02-22T11:31:01.918Z,4019.00
2023-02-22T11:32:01.780Z,4009.00
2023-02-22T11:33:02.269Z,4035.00
2023-02-22T11:34:01.811Z,4018.00
2023-02-22T11:35:09.023Z,4079.00
2023-02-22T11:36:02.837Z,4079.00
2023-02-22T11:37:01.795Z,3628.00
2023-02-22T11:38:02.236Z,3441.00
2023-02-22T11:39:01.781Z,3168.00
2023-02-22T11:40:01.778Z,2943.00
2023-02-22T11:41:01.760Z,2915.00
2023-02-22T11:42:02.268Z,2778.00
2023-02-22T11:43:01.734Z,2961.00
2023-02-22T11:44:01.817Z,3030.00
2023-02-22T11:45:01.773Z,2957.00
2023-02-22T11:46:02.283Z,3128.00
2023-02-22T11:47:01.723Z,3134.00
2023-02-22T11:48:01.735Z,3168.00
2023-02-22T11:49:01.710Z,3250.00
2023-02-22T11:50:01.732Z,3300.00
2023-02-22T11:51:01.671Z,3307.00
2023-02-22T11:52:01.718Z,3299.00
2023-02-22T11:53:01.781Z,3336.00
2023-02-22T11:54:01.699Z,3348.00
2023-02-22T11:55:01.739Z,3364.00
2023-02-22T11:56:01.755Z,3376.00
2023-02-22T11:57:01.890Z,3365.00
2023-02-22T11:58:01.916Z,3380.00
2023-02-22T11:59:01.937Z,3411.00
2023-02-22T12:00:02.044Z,3391.00
2023-02-22T12:01:02.051Z,3395.00
2023-02-22T12:02:02.133Z,3407.00
2023-02-22T12:03:02.222Z,3416.00
2023-02-22T12:04:02.374Z,3434.00
2023-02-22T12:05:02.375Z,3408.00
2023-02-22T12:06:02.385Z,3385.00
2023-02-22T12:07:02.402Z,3367.00
2023-02-22T12:08:10.705Z,3303.00
2023-02-22T12:09:03.482Z,3305.00
2023-02-22T12:10:02.445Z,3308.00
2023-02-22T12:11:02.490Z,3241.00
2023-02-22T12:12:02.429Z,3229.00
2023-02-22T12:13:02.457Z,3267.00
2023-02-22T12:14:02.465Z,3273.00
2023-02-22T12:15:02.422Z,3248.00
2023-02-22T12:16:02.475Z,3237.00
2023-02-22T12:17:02.444Z,3255.00
2023-02-22T12:18:02.486Z,3212.00
2023-02-22T12:19:02.553Z,3196.00
2023-02-22T12:20:02.615Z,3182.00
2023-02-22T12:21:02.629Z,2935.00
2023-02-22T12:22:02.722Z,2767.00
2023-02-22T12:24:02.756Z,2663.00
2023-02-22T12:25:10.315Z,2441.00
2023-02-22T12:26:03.741Z,2113.00
2023-02-22T12:27:05.038Z,1951.00
2023-02-22T12:28:07.694Z,1912.00
2023-02-22T12:29:03.707Z,1952.00
2023-02-22T12:30:02.733Z,1841.00
2023-02-22T12:32:02.709Z,1981.00
2023-02-22T12:33:04.730Z,1960.00
2023-02-22T12:34:02.776Z,1979.00
2023-02-22T12:35:02.689Z,1791.00
2023-02-22T12:37:02.666Z,1689.00
2023-02-22T12:38:02.806Z,1645.00
2023-02-22T12:39:04.048Z,1757.00
2023-02-22T12:40:02.656Z,1760.00
2023-02-22T12:41:02.635Z,1781.00
2023-02-22T12:42:02.672Z,1851.00
2023-02-22T12:43:02.648Z,1947.00
2023-02-22T12:44:02.643Z,2100.00
2023-02-22T12:45:03.334Z,2105.00
2023-02-22T12:46:02.719Z,2107.00
2023-02-22T12:47:02.667Z,2105.00
2023-02-22T12:49:02.607Z,2211.00
2023-02-22T12:50:02.586Z,2383.00
2023-02-22T12:51:02.603Z,2304.00
2023-02-22T12:52:12.436Z,2538.00
2023-02-22T12:54:02.545Z,2539.00
2023-02-22T12:55:02.560Z,2594.00
2023-02-22T12:56:02.558Z,2567.00
2023-02-22T13:21:02.384Z,5337.00
2023-02-22T13:24:02.383Z,4703.00
2023-02-22T13:25:02.398Z,4526.00
2023-02-22T13:26:02.482Z,4338.00
2023-02-22T13:27:02.512Z,4254.00
2023-02-22T13:28:02.580Z,4021.00
2023-02-22T13:29:02.645Z,4076.00
2023-02-22T13:30:02.674Z,3937.00
2023-02-22T13:31:02.784Z,4002.00
2023-02-22T13:33:02.894Z,4210.00
2023-02-22T13:34:02.983Z,4118.00
2023-02-22T13:35:03.022Z,4140.00
2023-02-22T13:36:03.037Z,4139.00
2023-02-22T13:37:03.089Z,4137.00
2023-02-22T13:38:03.150Z,4074.00
2023-02-22T13:39:03.176Z,4084.00
2023-02-22T13:40:03.219Z,4089.00
2023-02-22T13:41:03.226Z,4107.00
2023-02-22T13:42:03.257Z,4072.00
2023-02-22T13:43:03.260Z,4060.00
2023-02-22T13:45:03.333Z,4066.00
2023-02-22T13:46:03.371Z,4073.00
2023-02-22T13:47:03.383Z,4009.00
2023-02-22T13:48:03.364Z,3977.00
2023-02-22T13:49:03.383Z,3876.00
2023-02-22T13:50:03.400Z,3993.00
2023-02-22T13:51:03.433Z,4042.00
2023-02-22T14:18:03.800Z,3722.00
2023-02-22T14:19:03.576Z,3739.00
2023-02-22T14:20:03.572Z,3648.00
2023-02-22T14:21:03.597Z,3721.00
2023-02-22T14:22:03.592Z,3667.00
2023-02-22T14:23:03.690Z,3671.00
2023-02-22T14:24:03.601Z,3657.00
2023-02-22T14:25:03.617Z,3700.00
2023-02-22T14:26:04.305Z,3592.00
2023-02-22T14:27:03.636Z,3657.00
2023-02-22T14:28:03.582Z,3656.00
2023-02-22T14:29:03.645Z,3645.00
2023-02-22T14:30:03.613Z,3625.00
2023-02-22T14:31:03.747Z,3634.00
2023-02-22T14:32:03.715Z,3625.00
2023-02-22T14:33:03.658Z,3603.00
2023-02-22T14:34:03.658Z,3570.00
2023-02-22T14:35:04.320Z,3579.00
2023-02-22T14:36:03.616Z,3640.00
2023-02-22T14:37:03.672Z,3532.00
2023-02-22T14:38:03.824Z,3524.00
2023-02-22T14:39:03.642Z,3536.00
2023-02-22T14:40:03.654Z,3518.00
2023-02-22T14:41:03.650Z,3486.00
2023-02-22T14:42:03.671Z,3504.00
2023-02-22T14:43:03.738Z,3460.00
2023-02-22T14:44:03.691Z,3409.00
2023-02-22T16:27:04.321Z,2755.00
2023-02-22T16:28:04.356Z,2749.00
2023-02-22T16:29:04.388Z,2719.00
2023-02-22T16:30:10.012Z,2720.00
2023-02-22T16:31:05.529Z,2722.00
2023-02-22T16:32:04.508Z,2724.00
2023-02-22T16:33:04.389Z,2725.00
2023-02-22T16:34:04.358Z,2722.00
2023-02-22T16:35:04.373Z,2712.00
2023-02-22T16:36:04.362Z,2726.00
2023-02-22T16:37:04.342Z,2732.00
2023-02-22T16:38:04.328Z,2716.00
2023-02-22T16:40:04.322Z,2697.00
2023-02-22T17:29:05.410Z,2682.00
2023-02-22T17:30:05.482Z,2676.00
2023-02-22T17:31:05.517Z,2681.00
2023-02-22T17:33:05.586Z,2697.00
2023-02-22T17:34:05.637Z,2692.00
2023-02-22T17:35:05.675Z,2700.00
2023-02-22T17:36:05.703Z,2694.00
2023-02-22T17:37:05.748Z,2687.00
2023-02-22T17:38:05.796Z,2706.00
2023-02-22T17:39:05.841Z,2707.00
2023-02-22T17:41:05.937Z,2696.00
2023-02-22T17:42:06.027Z,2697.00
2023-02-22T17:43:06.029Z,2707.00
2023-02-22T17:44:06.092Z,2698.00
2023-02-22T17:53:06.508Z,2671.00
2023-02-22T17:54:06.532Z,2674.00